sensor_id;sensor_type;location;lat;lon;timestamp;temperature;humidity
37289;DHT22;23174;49.462;11.000;2023-12-29T00:01:38;12.00;99.90
37289;DHT22;23174;49.462;11.000;2023-12-29T00:03:39;12.00;99.90
37289;DHT22;23174;49.462;11.000;2023-12-29T00:05:39;12.00;99.90
37289;DHT22;23174;49.462;11.000;2023-12-29T00:07:39;12.10;99.90
37289;DHT22;23174;49.462;11.000;2023-12-29T00:09:40;12.10;99.90
37289;DHT22;23174;49.462;11.000;2023-12-29T00:11:41;12.10;99.90
37289;DHT22;23174;49.462;11.000;2023-12-29T00:13:41;12.10;99.90
37289;DHT22;23174;49.462;11.000;2023-12-29T00:15:42;12.10;99.90
37289;DHT22;23174;49.462;11.000;2023-12-29T00:17:43;12.10;99.90
37289;DHT22;23174;49.462;11.000;2023-12-29T00:19:43;12.10;99.90
37289;DHT22;23174;49.462;11.000;2023-12-29T00:21:43;12.10;99.90
37289;DHT22;23174;49.462;11.000;2023-12-29T00:23:44;12.20;99.90
37289;DHT22;23174;49.462;11.000;2023-12-29T00:25:44;12.20;99.90
37289;DHT22;23174;49.462;11.000;2023-12-29T00:27:45;12.20;99.90
37289;DHT22;23174;49.462;11.000;2023-12-29T00:29:45;12.20;99.90
37289;DHT22;23174;49.462;11.000;2023-12-29T00:31:46;12.20;99.90
37289;DHT22;23174;49.462;11.000;2023-12-29T00:33:46;12.10;99.90
37289;DHT22;23174;49.462;11.000;2023-12-29T00:35:47;12.10;99.90
37289;DHT22;23174;49.462;11.000;2023-12-29T00:37:49;12.00;99.90
37289;DHT22;23174;49.462;11.000;2023-12-29T00:39:50;12.00;99.90
37289;DHT22;23174;49.462;11.000;2023-12-29T00:41:51;12.00;99.90
37289;DHT22;23174;49.462;11.000;2023-12-29T00:43:51;12.00;99.90
37289;DHT22;23174;49.462;11.000;2023-12-29T00:45:52;11.90;99.90
37289;DHT22;23174;49.462;11.000;2023-12-29T00:47:52;11.90;99.90
37289;DHT22;23174;49.462;11.000;2023-12-29T00:49:53;11.90;99.90
37289;DHT22;23174;49.462;11.000;2023-12-29T00:51:54;11.90;99.90
37289;DHT22;23174;49.462;11.000;2023-12-29T00:53:54;11.90;99.90
37289;DHT22;23174;49.462;11.000;2023-12-29T00:55:55;12.00;99.90
37289;DHT22;23174;49.462;11.000;2023-12-29T00:57:55;12.00;99.90
37289;DHT22;23174;49.462;11.000;2023-12-29T00:59:56;12.00;99.90
37289;DHT22;23174;49.462;11.000;2023-12-29T01:01:56;12.00;99.90
37289;DHT22;23174;49.462;11.000;2023-12-29T01:03:57;12.00;99.90
37289;DHT22;23174;49.462;11.000;2023-12-29T01:05:57;12.10;99.90
37289;DHT22;23174;49.462;11.000;2023-12-29T01:07:58;12.10;99.90
37289;DHT22;23174;49.462;11.000;2023-12-29T01:09:58;12.20;99.90
37289;DHT22;23174;49.462;11.000;2023-12-29T01:11:59;12.20;99.90
37289;DHT22;23174;49.462;11.000;2023-12-29T01:14:00;12.10;99.90
37289;DHT22;23174;49.462;11.000;2023-12-29T01:16:00;12.10;99.90
37289;DHT22;23174;49.462;11.000;2023-12-29T01:18:01;12.20;99.90
37289;DHT22;23174;49.462;11.000;2023-12-29T01:20:01;12.20;99.90
37289;DHT22;23174;49.462;11.000;2023-12-29T01:22:04;12.20;99.90
37289;DHT22;23174;49.462;11.000;2023-12-29T01:24:05;12.20;99.90
37289;DHT22;23174;49.462;11.000;2023-12-29T01:26:07;12.20;99.90
37289;DHT22;23174;49.462;11.000;2023-12-29T01:28:07;12.20;99.90
37289;DHT22;23174;49.462;11.000;2023-12-29T01:30:08;12.20;99.90
37289;DHT22;23174;49.462;11.000;2023-12-29T01:32:09;12.10;99.90
37289;DHT22;23174;49.462;11.000;2023-12-29T01:34:10;12.10;99.90
37289;DHT22;23174;49.462;11.000;2023-12-29T01:36:17;12.20;99.90
37289;DHT22;23174;49.462;11.000;2023-12-29T01:38:19;12.10;99.90
37289;DHT22;23174;49.462;11.000;2023-12-29T01:40:19;12.10;99.90
37289;DHT22;23174;49.462;11.000;2023-12-29T01:42:20;12.10;99.90
37289;DHT22;23174;49.462;11.000;2023-12-29T01:44:21;12.10;99.90
37289;DHT22;23174;49.462;11.000;2023-12-29T01:46:24;12.10;99.90
37289;DHT22;23174;49.462;11.000;2023-12-29T01:48:25;12.10;99.90
37289;DHT22;23174;49.462;11.000;2023-12-29T01:50:26;12.10;99.90
37289;DHT22;23174;49.462;11.000;2023-12-29T01:52:27;12.10;99.90
37289;DHT22;23174;49.462;11.000;2023-12-29T01:54:30;12.10;99.90
37289;DHT22;23174;49.462;11.000;2023-12-29T01:56:31;12.10;99.90
37289;DHT22;23174;49.462;11.000;2023-12-29T01:58:31;12.20;99.90
37289;DHT22;23174;49.462;11.000;2023-12-29T02:00:33;12.20;99.90
37289;DHT22;23174;49.462;11.000;2023-12-29T02:02:34;12.20;99.90
37289;DHT22;23174;49.462;11.000;2023-12-29T02:04:35;12.20;99.90
37289;DHT22;23174;49.462;11.000;2023-12-29T02:06:37;12.20;99.90
37289;DHT22;23174;49.462;11.000;2023-12-29T02:08:38;12.20;99.90
37289;DHT22;23174;49.462;11.000;2023-12-29T02:10:40;12.20;99.90
37289;DHT22;23174;49.462;11.000;2023-12-29T02:12:41;12.10;99.90
37289;DHT22;23174;49.462;11.000;2023-12-29T02:14:42;12.20;99.90
37289;DHT22;23174;49.462;11.000;2023-12-29T02:21:25;12.30;99.90
37289;DHT22;23174;49.462;11.000;2023-12-29T02:23:26;12.30;99.90
37289;DHT22;23174;49.462;11.000;2023-12-29T02:25:26;12.30;99.90
37289;DHT22;23174;49.462;11.000;2023-12-29T02:27:46;12.30;99.90
37289;DHT22;23174;49.462;11.000;2023-12-29T02:30:09;12.30;99.90
37289;DHT22;23174;49.462;11.000;2023-12-29T02:32:14;12.30;99.90
37289;DHT22;23174;49.462;11.000;2023-12-29T02:34:18;12.20;99.90
37289;DHT22;23174;49.462;11.000;2023-12-29T02:36:22;12.20;99.90
37289;DHT22;23174;49.462;11.000;2023-12-29T02:38:23;12.20;99.90
37289;DHT22;23174;49.462;11.000;2023-12-29T02:40:25;12.10;99.90
37289;DHT22;23174;49.462;11.000;2023-12-29T02:42:25;12.20;99.90
37289;DHT22;23174;49.462;11.000;2023-12-29T02:44:26;12.20;99.90
37289;DHT22;23174;49.462;11.000;2023-12-29T02:46:26;12.10;99.90
37289;DHT22;23174;49.462;11.000;2023-12-29T02:48:27;12.20;99.90
37289;DHT22;23174;49.462;11.000;2023-12-29T02:50:27;12.10;99.90
37289;DHT22;23174;49.462;11.000;2023-12-29T02:52:28;12.10;99.90
37289;DHT22;23174;49.462;11.000;2023-12-29T02:54:28;12.00;99.90
37289;DHT22;23174;49.462;11.000;2023-12-29T02:56:29;12.00;99.90
37289;DHT22;23174;49.462;11.000;2023-12-29T02:58:29;11.90;99.90
37289;DHT22;23174;49.462;11.000;2023-12-29T03:00:30;12.00;99.90
37289;DHT22;23174;49.462;11.000;2023-12-29T03:02:30;12.00;99.90
37289;DHT22;23174;49.462;11.000;2023-12-29T03:04:31;12.00;99.90
37289;DHT22;23174;49.462;11.000;2023-12-29T03:06:31;12.00;99.90
37289;DHT22;23174;49.462;11.000;2023-12-29T03:08:32;12.00;99.90
37289;DHT22;23174;49.462;11.000;2023-12-29T03:10:32;12.00;99.90
37289;DHT22;23174;49.462;11.000;2023-12-29T03:12:33;12.00;99.90
37289;DHT22;23174;49.462;11.000;2023-12-29T03:14:34;12.00;99.90
37289;DHT22;23174;49.462;11.000;2023-12-29T03:16:34;12.00;99.90
37289;DHT22;23174;49.462;11.000;2023-12-29T03:18:34;11.90;99.90
37289;DHT22;23174;49.462;11.000;2023-12-29T03:20:38;11.90;99.90
37289;DHT22;23174;49.462;11.000;2023-12-29T03:22:39;12.00;99.90
37289;DHT22;23174;49.462;11.000;2023-12-29T03:24:40;11.90;99.90
37289;DHT22;23174;49.462;11.000;2023-12-29T03:26:41;11.90;99.90
37289;DHT22;23174;49.462;11.000;2023-12-29T03:28:42;11.80;99.90
37289;DHT22;23174;49.462;11.000;2023-12-29T03:30:42;11.80;99.90
37289;DHT22;23174;49.462;11.000;2023-12-29T03:32:43;11.80;99.90
37289;DHT22;23174;49.462;11.000;2023-12-29T03:34:43;11.80;99.90
37289;DHT22;23174;49.462;11.000;2023-12-29T03:36:44;11.90;99.90
37289;DHT22;23174;49.462;11.000;2023-12-29T03:38:47;11.80;99.90
37289;DHT22;23174;49.462;11.000;2023-12-29T03:40:51;11.70;99.90
37289;DHT22;23174;49.462;11.000;2023-12-29T03:42:51;11.80;99.90
37289;DHT22;23174;49.462;11.000;2023-12-29T03:44:52;11.80;99.90
37289;DHT22;23174;49.462;11.000;2023-12-29T03:46:52;11.80;99.90
37289;DHT22;23174;49.462;11.000;2023-12-29T03:48:53;11.70;99.90
37289;DHT22;23174;49.462;11.000;2023-12-29T03:50:53;11.70;99.90
37289;DHT22;23174;49.462;11.000;2023-12-29T03:52:53;11.80;99.90
37289;DHT22;23174;49.462;11.000;2023-12-29T03:54:54;11.70;99.90
37289;DHT22;23174;49.462;11.000;2023-12-29T03:56:54;11.70;99.90
37289;DHT22;23174;49.462;11.000;2023-12-29T03:58:55;11.60;99.90
37289;DHT22;23174;49.462;11.000;2023-12-29T04:00:55;11.60;99.90
37289;DHT22;23174;49.462;11.000;2023-12-29T04:02:56;11.50;99.90
37289;DHT22;23174;49.462;11.000;2023-12-29T04:04:56;11.50;99.90
37289;DHT22;23174;49.462;11.000;2023-12-29T04:06:57;11.50;99.90
37289;DHT22;23174;49.462;11.000;2023-12-29T04:08:57;11.50;99.90
37289;DHT22;23174;49.462;11.000;2023-12-29T04:10:58;11.40;99.90
37289;DHT22;23174;49.462;11.000;2023-12-29T04:12:58;11.40;99.90
37289;DHT22;23174;49.462;11.000;2023-12-29T04:14:59;11.40;99.90
37289;DHT22;23174;49.462;11.000;2023-12-29T04:16:59;11.50;99.90
37289;DHT22;23174;49.462;11.000;2023-12-29T04:19:03;11.40;99.90
37289;DHT22;23174;49.462;11.000;2023-12-29T04:21:04;11.40;99.90
37289;DHT22;23174;49.462;11.000;2023-12-29T04:23:06;11.40;99.90
37289;DHT22;23174;49.462;11.000;2023-12-29T04:25:07;11.40;99.90
37289;DHT22;23174;49.462;11.000;2023-12-29T04:27:08;11.40;99.90
37289;DHT22;23174;49.462;11.000;2023-12-29T04:29:08;11.50;99.90
37289;DHT22;23174;49.462;11.000;2023-12-29T04:31:09;11.40;99.90
37289;DHT22;23174;49.462;11.000;2023-12-29T04:33:09;11.40;99.90
37289;DHT22;23174;49.462;11.000;2023-12-29T04:35:10;11.50;99.90
37289;DHT22;23174;49.462;11.000;2023-12-29T04:37:13;11.60;99.90
37289;DHT22;23174;49.462;11.000;2023-12-29T04:39:13;11.50;99.90
37289;DHT22;23174;49.462;11.000;2023-12-29T04:41:13;11.40;99.90
37289;DHT22;23174;49.462;11.000;2023-12-29T04:43:15;11.40;99.90
37289;DHT22;23174;49.462;11.000;2023-12-29T04:45:15;11.40;99.90
37289;DHT22;23174;49.462;11.000;2023-12-29T04:47:16;11.40;99.90
37289;DHT22;23174;49.462;11.000;2023-12-29T04:49:17;11.40;99.90
37289;DHT22;23174;49.462;11.000;2023-12-29T04:51:17;11.40;99.90
37289;DHT22;23174;49.462;11.000;2023-12-29T04:53:18;11.50;99.90
37289;DHT22;23174;49.462;11.000;2023-12-29T04:55:18;11.60;99.90
37289;DHT22;23174;49.462;11.000;2023-12-29T04:57:19;11.60;99.90
37289;DHT22;23174;49.462;11.000;2023-12-29T04:59:19;11.60;99.90
37289;DHT22;23174;49.462;11.000;2023-12-29T05:01:20;11.60;99.90
37289;DHT22;23174;49.462;11.000;2023-12-29T05:03:20;11.70;99.90
37289;DHT22;23174;49.462;11.000;2023-12-29T05:05:21;11.80;99.90
37289;DHT22;23174;49.462;11.000;2023-12-29T05:07:23;11.90;99.90
37289;DHT22;23174;49.462;11.000;2023-12-29T05:09:24;12.00;99.90
37289;DHT22;23174;49.462;11.000;2023-12-29T05:11:24;12.00;99.90
37289;DHT22;23174;49.462;11.000;2023-12-29T05:13:25;12.00;99.90
37289;DHT22;23174;49.462;11.000;2023-12-29T05:15:25;12.10;99.90
37289;DHT22;23174;49.462;11.000;2023-12-29T05:17:26;12.10;99.90
37289;DHT22;23174;49.462;11.000;2023-12-29T05:19:26;12.10;99.90
37289;DHT22;23174;49.462;11.000;2023-12-29T05:21:27;12.10;99.90
37289;DHT22;23174;49.462;11.000;2023-12-29T05:23:27;12.00;99.90
37289;DHT22;23174;49.462;11.000;2023-12-29T05:25:28;12.00;99.90
37289;DHT22;23174;49.462;11.000;2023-12-29T05:27:28;12.00;99.90
37289;DHT22;23174;49.462;11.000;2023-12-29T05:29:29;12.00;99.90
37289;DHT22;23174;49.462;11.000;2023-12-29T05:31:29;12.00;99.90
37289;DHT22;23174;49.462;11.000;2023-12-29T05:33:31;11.90;99.90
37289;DHT22;23174;49.462;11.000;2023-12-29T05:35:31;11.90;99.90
37289;DHT22;23174;49.462;11.000;2023-12-29T05:37:32;11.80;99.90
37289;DHT22;23174;49.462;11.000;2023-12-29T05:39:32;11.80;99.90
37289;DHT22;23174;49.462;11.000;2023-12-29T05:41:33;11.90;99.90
37289;DHT22;23174;49.462;11.000;2023-12-29T05:43:34;11.80;99.90
37289;DHT22;23174;49.462;11.000;2023-12-29T05:45:34;11.80;99.90
37289;DHT22;23174;49.462;11.000;2023-12-29T05:47:35;11.70;99.90
37289;DHT22;23174;49.462;11.000;2023-12-29T05:49:35;11.60;99.90
37289;DHT22;23174;49.462;11.000;2023-12-29T05:51:39;11.60;99.90
37289;DHT22;23174;49.462;11.000;2023-12-29T05:53:40;11.60;99.90
37289;DHT22;23174;49.462;11.000;2023-12-29T05:55:40;11.60;99.90
37289;DHT22;23174;49.462;11.000;2023-12-29T05:57:41;11.60;99.90
37289;DHT22;23174;49.462;11.000;2023-12-29T05:59:42;11.60;99.90
37289;DHT22;23174;49.462;11.000;2023-12-29T06:01:42;11.60;99.90
37289;DHT22;23174;49.462;11.000;2023-12-29T06:03:42;11.60;99.90
37289;DHT22;23174;49.462;11.000;2023-12-29T06:05:43;11.60;99.90
37289;DHT22;23174;49.462;11.000;2023-12-29T06:07:43;11.60;99.90
37289;DHT22;23174;49.462;11.000;2023-12-29T06:09:44;11.50;99.90
37289;DHT22;23174;49.462;11.000;2023-12-29T06:11:44;11.60;99.90
37289;DHT22;23174;49.462;11.000;2023-12-29T06:13:45;11.50;99.90
37289;DHT22;23174;49.462;11.000;2023-12-29T06:15:46;11.50;99.90
37289;DHT22;23174;49.462;11.000;2023-12-29T06:17:46;11.40;99.90
37289;DHT22;23174;49.462;11.000;2023-12-29T06:19:46;11.50;99.90
37289;DHT22;23174;49.462;11.000;2023-12-29T06:21:47;11.50;99.90
37289;DHT22;23174;49.462;11.000;2023-12-29T06:23:48;11.40;99.90
37289;DHT22;23174;49.462;11.000;2023-12-29T06:25:48;11.50;99.90
37289;DHT22;23174;49.462;11.000;2023-12-29T06:27:49;11.50;99.90
37289;DHT22;23174;49.462;11.000;2023-12-29T06:29:49;11.50;99.90
37289;DHT22;23174;49.462;11.000;2023-12-29T06:31:50;11.50;99.90
37289;DHT22;23174;49.462;11.000;2023-12-29T06:33:51;11.40;99.90
37289;DHT22;23174;49.462;11.000;2023-12-29T06:35:51;11.30;99.90
37289;DHT22;23174;49.462;11.000;2023-12-29T06:37:52;11.30;99.90
37289;DHT22;23174;49.462;11.000;2023-12-29T06:39:52;11.30;99.90
37289;DHT22;23174;49.462;11.000;2023-12-29T06:41:53;11.30;99.90
37289;DHT22;23174;49.462;11.000;2023-12-29T06:43:53;11.30;99.90
37289;DHT22;23174;49.462;11.000;2023-12-29T06:45:54;11.30;99.90
37289;DHT22;23174;49.462;11.000;2023-12-29T06:47:54;11.40;99.90
37289;DHT22;23174;49.462;11.000;2023-12-29T06:49:55;11.40;99.90
37289;DHT22;23174;49.462;11.000;2023-12-29T06:51:55;11.40;99.90
37289;DHT22;23174;49.462;11.000;2023-12-29T06:53:56;11.40;99.90
37289;DHT22;23174;49.462;11.000;2023-12-29T06:55:56;11.40;99.90
37289;DHT22;23174;49.462;11.000;2023-12-29T06:57:57;11.30;99.90
37289;DHT22;23174;49.462;11.000;2023-12-29T06:59:58;11.40;99.90
37289;DHT22;23174;49.462;11.000;2023-12-29T07:01:58;11.50;99.90
37289;DHT22;23174;49.462;11.000;2023-12-29T07:03:59;11.50;99.90
37289;DHT22;23174;49.462;11.000;2023-12-29T07:06:02;11.50;99.90
37289;DHT22;23174;49.462;11.000;2023-12-29T07:08:03;11.60;99.90
37289;DHT22;23174;49.462;11.000;2023-12-29T07:10:04;11.60;99.90
37289;DHT22;23174;49.462;11.000;2023-12-29T07:12:06;11.70;99.90
37289;DHT22;23174;49.462;11.000;2023-12-29T07:14:07;11.70;99.90
37289;DHT22;23174;49.462;11.000;2023-12-29T07:16:07;11.70;99.90
37289;DHT22;23174;49.462;11.000;2023-12-29T07:18:08;11.70;99.90
37289;DHT22;23174;49.462;11.000;2023-12-29T07:20:09;11.70;99.90
37289;DHT22;23174;49.462;11.000;2023-12-29T07:22:10;11.70;99.90
37289;DHT22;23174;49.462;11.000;2023-12-29T07:24:10;11.70;99.90
37289;DHT22;23174;49.462;11.000;2023-12-29T07:26:11;11.70;99.90
37289;DHT22;23174;49.462;11.000;2023-12-29T07:28:11;11.70;99.90
37289;DHT22;23174;49.462;11.000;2023-12-29T07:30:12;11.80;99.90
37289;DHT22;23174;49.462;11.000;2023-12-29T07:32:13;11.80;99.90
37289;DHT22;23174;49.462;11.000;2023-12-29T07:34:13;11.90;99.90
37289;DHT22;23174;49.462;11.000;2023-12-29T07:36:14;12.00;99.90
37289;DHT22;23174;49.462;11.000;2023-12-29T07:38:14;12.00;99.90
37289;DHT22;23174;49.462;11.000;2023-12-29T07:40:15;12.10;99.90
37289;DHT22;23174;49.462;11.000;2023-12-29T07:42:15;12.20;99.90
37289;DHT22;23174;49.462;11.000;2023-12-29T07:44:17;12.20;99.90
37289;DHT22;23174;49.462;11.000;2023-12-29T07:46:25;12.20;99.90
37289;DHT22;23174;49.462;11.000;2023-12-29T07:48:26;12.20;99.90
37289;DHT22;23174;49.462;11.000;2023-12-29T07:50:27;12.20;99.90
37289;DHT22;23174;49.462;11.000;2023-12-29T07:52:27;12.30;99.90
37289;DHT22;23174;49.462;11.000;2023-12-29T07:54:28;12.40;99.90
37289;DHT22;23174;49.462;11.000;2023-12-29T07:56:28;12.40;99.90
37289;DHT22;23174;49.462;11.000;2023-12-29T07:58:29;12.40;99.90
37289;DHT22;23174;49.462;11.000;2023-12-29T08:00:29;12.40;99.90
37289;DHT22;23174;49.462;11.000;2023-12-29T08:02:30;12.40;99.90
37289;DHT22;23174;49.462;11.000;2023-12-29T08:04:31;12.40;99.90
37289;DHT22;23174;49.462;11.000;2023-12-29T08:06:31;12.50;99.90
37289;DHT22;23174;49.462;11.000;2023-12-29T08:08:32;12.50;99.90
37289;DHT22;23174;49.462;11.000;2023-12-29T08:10:32;12.60;99.90
37289;DHT22;23174;49.462;11.000;2023-12-29T08:12:33;12.50;99.90
37289;DHT22;23174;49.462;11.000;2023-12-29T08:14:34;12.50;99.90
37289;DHT22;23174;49.462;11.000;2023-12-29T08:16:38;12.50;99.90
37289;DHT22;23174;49.462;11.000;2023-12-29T08:18:40;12.50;99.90
37289;DHT22;23174;49.462;11.000;2023-12-29T08:20:40;12.50;99.90
37289;DHT22;23174;49.462;11.000;2023-12-29T08:22:41;12.60;99.90
37289;DHT22;23174;49.462;11.000;2023-12-29T08:24:42;12.60;99.90
37289;DHT22;23174;49.462;11.000;2023-12-29T08:26:46;12.60;99.90
37289;DHT22;23174;49.462;11.000;2023-12-29T08:28:47;12.70;99.90
37289;DHT22;23174;49.462;11.000;2023-12-29T08:30:47;12.70;99.90
37289;DHT22;23174;49.462;11.000;2023-12-29T08:32:48;12.60;99.90
37289;DHT22;23174;49.462;11.000;2023-12-29T08:34:48;12.60;99.90
37289;DHT22;23174;49.462;11.000;2023-12-29T08:36:49;12.60;99.90
37289;DHT22;23174;49.462;11.000;2023-12-29T08:38:49;12.60;99.90
37289;DHT22;23174;49.462;11.000;2023-12-29T08:40:50;12.70;99.90
37289;DHT22;23174;49.462;11.000;2023-12-29T08:42:51;12.80;99.90
37289;DHT22;23174;49.462;11.000;2023-12-29T08:44:51;12.80;99.90
37289;DHT22;23174;49.462;11.000;2023-12-29T08:46:52;12.80;99.90
37289;DHT22;23174;49.462;11.000;2023-12-29T08:48:52;12.80;99.90
37289;DHT22;23174;49.462;11.000;2023-12-29T08:50:53;12.90;99.90
37289;DHT22;23174;49.462;11.000;2023-12-29T08:52:53;12.90;99.90
37289;DHT22;23174;49.462;11.000;2023-12-29T08:54:54;12.90;99.90
37289;DHT22;23174;49.462;11.000;2023-12-29T08:56:54;12.90;99.90
37289;DHT22;23174;49.462;11.000;2023-12-29T08:58:55;12.90;99.90
37289;DHT22;23174;49.462;11.000;2023-12-29T09:00:56;13.00;99.90
37289;DHT22;23174;49.462;11.000;2023-12-29T09:02:56;13.10;99.90
37289;DHT22;23174;49.462;11.000;2023-12-29T09:04:57;13.10;99.90
37289;DHT22;23174;49.462;11.000;2023-12-29T09:06:57;13.10;99.90
37289;DHT22;23174;49.462;11.000;2023-12-29T09:08:58;13.10;99.90
37289;DHT22;23174;49.462;11.000;2023-12-29T09:10:59;13.10;99.90
37289;DHT22;23174;49.462;11.000;2023-12-29T09:12:59;13.10;99.90
37289;DHT22;23174;49.462;11.000;2023-12-29T09:15:00;13.10;99.90
37289;DHT22;23174;49.462;11.000;2023-12-29T09:17:00;13.10;99.90
37289;DHT22;23174;49.462;11.000;2023-12-29T09:19:01;13.10;99.90
37289;DHT22;23174;49.462;11.000;2023-12-29T09:21:02;13.10;99.90
37289;DHT22;23174;49.462;11.000;2023-12-29T09:23:02;13.10;99.90
37289;DHT22;23174;49.462;11.000;2023-12-29T09:25:04;13.10;99.90
37289;DHT22;23174;49.462;11.000;2023-12-29T09:27:04;12.20;99.90
37289;DHT22;23174;49.462;11.000;2023-12-29T09:29:05;11.80;99.90
37289;DHT22;23174;49.462;11.000;2023-12-29T09:31:06;11.60;99.90
37289;DHT22;23174;49.462;11.000;2023-12-29T09:33:07;11.60;99.90
37289;DHT22;23174;49.462;11.000;2023-12-29T09:35:07;11.60;99.90
37289;DHT22;23174;49.462;11.000;2023-12-29T09:37:08;11.60;99.90
37289;DHT22;23174;49.462;11.000;2023-12-29T09:39:09;11.60;99.90
37289;DHT22;23174;49.462;11.000;2023-12-29T09:41:14;11.60;99.90
37289;DHT22;23174;49.462;11.000;2023-12-29T09:43:14;11.60;99.90
37289;DHT22;23174;49.462;11.000;2023-12-29T09:45:20;11.60;99.90
37289;DHT22;23174;49.462;11.000;2023-12-29T09:47:25;12.10;99.90
37289;DHT22;23174;49.462;11.000;2023-12-29T09:49:35;12.50;99.90
37289;DHT22;23174;49.462;11.000;2023-12-29T09:51:37;12.80;99.90
37289;DHT22;23174;49.462;11.000;2023-12-29T09:53:38;12.80;99.90
37289;DHT22;23174;49.462;11.000;2023-12-29T09:55:40;12.90;99.90
37289;DHT22;23174;49.462;11.000;2023-12-29T09:57:41;13.00;99.90
37289;DHT22;23174;49.462;11.000;2023-12-29T09:59:43;13.00;99.90
37289;DHT22;23174;49.462;11.000;2023-12-29T10:01:45;12.90;99.90
37289;DHT22;23174;49.462;11.000;2023-12-29T10:03:47;12.90;99.90
37289;DHT22;23174;49.462;11.000;2023-12-29T10:05:51;13.00;99.90
37289;DHT22;23174;49.462;11.000;2023-12-29T10:07:56;13.00;99.90
